Time;durP1;ratioP1;P1;durP2;ratioP2;P2;SDS_P1;SDS_P2;PMS_P1;PMS_P2;Temp;Humidity;BMP_temperature;BMP_pressure;BME280_temperature;BME280_humidity;BME280_pressure;Samples;Min_cycle;Max_cycle;Signal;HPM_P1;HPM_P2
2024/02/27 00:00:25;;;;;;;4.97;4.00;;;23.40;41.40;;;;;;5074619;28;20047;-41
2024/02/27 00:02:51;;;;;;;5.07;4.43;;;23.40;41.60;;;;;;5056480;28;20059;-41
2024/02/27 00:05:17;;;;;;;4.33;3.93;;;23.40;41.90;;;;;;5075496;28;20040;-41
2024/02/27 00:07:43;;;;;;;7.65;5.07;;;23.40;41.70;;;;;;5070813;28;20041;-39
2024/02/27 00:10:11;;;;;;;4.43;3.72;;;23.30;41.70;;;;;;5067797;28;20039;-41
2024/02/27 00:12:37;;;;;;;5.80;4.95;;;23.30;41.70;;;;;;5068969;28;20477;-39
2024/02/27 00:15:03;;;;;;;5.15;4.43;;;23.30;41.70;;;;;;5069468;28;20051;-39
2024/02/27 00:17:30;;;;;;;4.87;4.37;;;23.30;41.60;;;;;;5051570;28;20452;-41
2024/02/27 00:19:56;;;;;;;5.43;4.40;;;23.30;41.50;;;;;;5068975;28;20289;-40
2024/02/27 00:22:22;;;;;;;5.35;4.30;;;23.30;41.40;;;;;;5066799;28;20052;-42
2024/02/27 00:24:48;;;;;;;5.10;4.50;;;23.20;41.50;;;;;;5070990;28;20021;-39
2024/02/27 00:27:14;;;;;;;5.30;4.78;;;23.20;41.50;;;;;;5068125;28;20036;-41
2024/02/27 00:29:40;;;;;;;4.90;4.40;;;23.20;41.30;;;;;;5069589;28;20043;-41
2024/02/27 00:32:06;;;;;;;7.00;4.90;;;23.20;41.40;;;;;;5071642;28;20275;-41
2024/02/27 00:34:33;;;;;;;5.40;4.90;;;23.10;41.20;;;;;;5068190;28;20069;-43
2024/02/27 00:36:59;;;;;;;5.78;5.18;;;23.10;41.20;;;;;;5072057;28;20040;-41
2024/02/27 00:39:25;;;;;;;6.53;5.80;;;23.10;41.00;;;;;;5071593;28;20025;-44
2024/02/27 00:41:54;;;;;;;7.28;5.97;;;23.10;41.90;;;;;;5069952;28;20047;-41
2024/02/27 00:44:20;;;;;;;6.75;6.05;;;23.10;41.40;;;;;;5071447;28;20092;-41
2024/02/27 00:46:47;;;;;;;7.50;6.40;;;23.10;42.00;;;;;;5082668;28;20052;-40
2024/02/27 00:49:13;;;;;;;7.05;6.35;;;23.10;41.50;;;;;;5082582;28;20304;-40
2024/02/27 00:51:39;;;;;;;9.00;6.70;;;23.10;41.50;;;;;;5082524;28;20139;-41
2024/02/27 00:54:05;;;;;;;6.85;6.15;;;23.00;41.50;;;;;;5082641;28;20066;-40
2024/02/27 00:56:32;;;;;;;7.38;6.63;;;23.00;41.50;;;;;;5082862;28;20085;-42
2024/02/27 00:59:18;;;;;;;7.00;6.30;;;23.00;41.50;;;;;;5064063;28;20039;-41
2024/02/27 01:01:44;;;;;;;8.07;7.28;;;22.90;41.30;;;;;;5019646;28;20129;-40
2024/02/27 01:04:10;;;;;;;8.67;7.77;;;23.00;41.80;;;;;;5016577;28;20042;-41
2024/02/27 01:06:37;;;;;;;8.37;7.30;;;23.00;41.70;;;;;;5016424;28;20042;-43
2024/02/27 01:09:03;;;;;;;8.55;7.72;;;23.00;41.80;;;;;;5017981;28;20029;-39
2024/02/27 01:11:29;;;;;;;7.95;7.15;;;23.00;41.80;;;;;;5014790;28;20033;-40
2024/02/27 01:13:56;;;;;;;8.88;7.97;;;22.90;41.70;;;;;;5019158;28;20038;-41
2024/02/27 01:16:23;;;;;;;8.15;7.35;;;22.90;41.70;;;;;;5016222;28;20042;-39
2024/02/27 01:18:49;;;;;;;8.93;7.35;;;22.90;41.60;;;;;;5016313;28;20034;-41
2024/02/27 01:21:15;;;;;;;8.60;7.70;;;22.90;41.70;;;;;;5017647;28;20033;-39
2024/02/27 01:23:42;;;;;;;9.90;8.20;;;22.80;41.60;;;;;;5016440;28;20037;-39
2024/02/27 01:26:08;;;;;;;9.52;8.60;;;22.80;41.80;;;;;;5015529;28;20050;-40
2024/02/27 01:28:34;;;;;;;9.48;8.55;;;22.90;42.00;;;;;;5018936;28;20554;-40
2024/02/27 01:31:00;;;;;;;9.50;8.50;;;22.90;42.00;;;;;;5018279;28;20043;-40
2024/02/27 01:33:26;;;;;;;9.57;8.57;;;22.90;42.00;;;;;;5019212;28;20070;-40
2024/02/27 01:35:52;;;;;;;9.15;8.35;;;22.80;41.90;;;;;;5015535;28;20065;-40
2024/02/27 01:38:18;;;;;;;9.05;8.15;;;22.80;41.90;;;;;;5036006;28;20028;-39
2024/02/27 01:40:44;;;;;;;9.48;8.57;;;22.80;41.90;;;;;;5081596;28;20489;-41
2024/02/27 01:43:37;;;;;;;10.07;9.05;;;22.80;41.80;;;;;;5081277;28;20059;-41
2024/02/27 01:46:15;;;;;;;10.43;9.32;;;22.80;41.90;;;;;;5076018;28;20043;-40
2024/02/27 01:48:43;;;;;;;10.55;9.48;;;22.80;42.10;;;;;;5077939;28;20076;-40
2024/02/27 01:51:10;;;;;;;10.93;9.75;;;22.80;42.10;;;;;;5063426;28;20054;-42
2024/02/27 01:53:37;;;;;;;10.38;9.27;;;22.80;42.10;;;;;;5063637;28;20059;-42
2024/02/27 01:56:03;;;;;;;10.32;9.32;;;22.80;42.10;;;;;;5062814;28;20032;-42
2024/02/27 01:58:29;;;;;;;10.53;8.93;;;22.70;42.00;;;;;;5081167;28;20029;-41
2024/02/27 02:00:55;;;;;;;10.68;9.55;;;22.70;42.00;;;;;;5063034;28;20040;-41
2024/02/27 02:03:23;;;;;;;10.30;9.30;;;22.70;41.90;;;;;;5079819;28;20125;-42
2024/02/27 02:05:49;;;;;;;10.82;9.73;;;22.70;42.10;;;;;;5080921;28;20054;-42
2024/02/27 02:08:15;;;;;;;11.40;10.20;;;22.70;42.30;;;;;;5081396;28;20020;-41
2024/02/27 02:10:41;;;;;;;11.48;10.13;;;22.80;42.30;;;;;;5062962;28;20279;-41
2024/02/27 02:13:08;;;;;;;10.75;9.65;;;22.70;42.20;;;;;;5062752;28;20029;-42
2024/02/27 02:15:34;;;;;;;11.48;10.25;;;22.70;42.20;;;;;;5076508;28;20051;-41
2024/02/27 02:18:00;;;;;;;11.40;9.30;;;22.70;42.10;;;;;;5077949;28;20056;-41
2024/02/27 02:20:26;;;;;;;11.05;9.95;;;22.70;42.10;;;;;;5074933;28;20064;-41
2024/02/27 02:22:52;;;;;;;11.25;10.15;;;22.60;42.10;;;;;;5080556;28;20052;-41
2024/02/27 02:25:19;;;;;;;12.38;9.93;;;22.60;42.20;;;;;;5080590;28;20020;-40
2024/02/27 02:27:45;;;;;;;11.75;10.55;;;22.70;42.40;;;;;;5046869;28;20021;-41
2024/02/27 02:30:12;;;;;;;10.98;9.88;;;22.70;42.40;;;;;;5065641;28;20028;-41
2024/02/27 02:32:51;;;;;;;11.02;9.93;;;22.70;42.40;;;;;;5080867;28;20497;-41
2024/02/27 02:35:17;;;;;;;11.52;10.25;;;22.60;42.30;;;;;;5080173;28;20497;-41
2024/02/27 02:37:48;;;;;;;11.15;10.05;;;22.60;42.30;;;;;;5080959;28;20791;-41
2024/02/27 02:40:17;;;;;;;11.55;10.35;;;22.60;42.80;;;;;;5080784;28;20036;-41
2024/02/27 02:42:44;;;;;;;11.85;10.68;;;22.60;42.30;;;;;;5063730;28;20029;-40
2024/02/27 02:45:10;;;;;;;11.75;10.55;;;22.60;42.50;;;;;;5080599;28;20024;-41
2024/02/27 02:47:37;;;;;;;11.68;10.48;;;22.60;42.50;;;;;;5073643;28;20032;-41
2024/02/27 02:50:04;;;;;;;11.50;10.32;;;22.70;42.60;;;;;;5080360;28;20032;-42
2024/02/27 02:52:30;;;;;;;;;;;22.60;42.40;;;;;;5080894;28;20035;-39
2024/02/27 02:54:57;;;;;;;12.00;10.80;;;22.60;42.40;;;;;;5080323;28;19920;-41
2024/02/27 02:57:23;;;;;;;11.57;10.38;;;22.60;42.40;;;;;;5081468;28;20039;-42
2024/02/27 02:59:49;;;;;;;11.95;10.75;;;22.60;42.40;;;;;;5062255;28;20067;-40
2024/02/27 03:02:16;;;;;;;11.75;10.38;;;22.50;42.40;;;;;;5080260;28;20047;-40
2024/02/27 03:04:42;;;;;;;11.50;10.30;;;22.60;42.60;;;;;;5077724;28;20469;-41
2024/02/27 03:07:08;;;;;;;11.80;10.63;;;22.60;42.60;;;;;;5079463;28;20064;-41
2024/02/27 03:09:34;;;;;;;11.90;10.57;;;22.60;42.60;;;;;;5081043;28;20021;-41
2024/02/27 03:12:00;;;;;;;10.63;9.63;;;22.60;42.60;;;;;;5080232;28;20028;-41
2024/02/27 03:14:27;;;;;;;11.63;10.52;;;22.60;42.50;;;;;;5075955;28;20025;-41
2024/02/27 03:16:56;;;;;;;12.07;10.88;;;22.60;42.50;;;;;;5072704;28;20124;-41
2024/02/27 03:19:22;;;;;;;11.65;10.45;;;22.50;42.50;;;;;;5073993;28;20035;-39
2024/02/27 03:21:48;;;;;;;11.60;10.50;;;22.50;42.60;;;;;;5080023;28;20043;-41
2024/02/27 03:24:15;;;;;;;11.57;10.48;;;22.60;42.80;;;;;;5077633;28;20032;-39
2024/02/27 03:26:42;;;;;;;11.90;10.80;;;22.60;42.70;;;;;;5080225;28;20032;-41
2024/02/27 03:29:08;;;;;;;11.38;10.25;;;22.60;42.70;;;;;;5074136;28;20033;-42
2024/02/27 03:31:34;;;;;;;11.60;10.50;;;22.50;42.60;;;;;;5080661;28;20033;-41
2024/02/27 03:34:00;;;;;;;12.15;10.85;;;22.50;42.60;;;;;;5074959;28;20025;-42
2024/02/27 03:36:27;;;;;;;11.95;10.70;;;22.50;42.60;;;;;;5079534;28;20033;-39
2024/02/27 03:38:53;;;;;;;12.02;10.93;;;22.50;42.80;;;;;;5083277;28;20032;-39
2024/02/27 03:41:19;;;;;;;12.07;10.93;;;22.60;42.90;;;;;;5083886;28;20396;-41
2024/02/27 03:43:45;;;;;;;12.45;10.88;;;22.60;42.90;;;;;;5084247;28;20025;-42
2024/02/27 03:46:12;;;;;;;12.80;11.50;;;22.60;43.40;;;;;;5084008;28;20157;-41
2024/02/27 03:48:38;;;;;;;12.80;11.50;;;22.50;42.80;;;;;;5083904;28;20476;-41
2024/02/27 03:51:04;;;;;;;12.32;11.15;;;22.50;42.70;;;;;;5083425;28;20036;-41
2024/02/27 03:53:31;;;;;;;12.43;11.17;;;22.50;42.80;;;;;;5084238;28;20025;-41
2024/02/27 03:55:57;;;;;;;11.45;10.35;;;22.50;42.90;;;;;;5064176;28;20020;-39
2024/02/27 03:58:23;;;;;;;11.95;10.75;;;22.50;43.50;;;;;;5084001;28;20029;-41
2024/02/27 04:00:49;;;;;;;12.52;11.23;;;22.60;43.00;;;;;;5083789;28;20044;-41
2024/02/27 04:03:16;;;;;;;12.35;11.15;;;22.60;42.90;;;;;;5073355;28;20025;-41
2024/02/27 04:05:42;;;;;;;12.02;10.80;;;22.50;42.90;;;;;;5079708;28;20040;-41
2024/02/27 04:08:08;;;;;;;12.53;11.33;;;22.50;42.80;;;;;;5083475;28;20029;-41
2024/02/27 04:10:35;;;;;;;11.80;10.70;;;22.50;42.80;;;;;;5083803;28;20544;-40
2024/02/27 04:13:01;;;;;;;12.43;11.23;;;22.50;42.90;;;;;;5082879;28;20063;-41
2024/02/27 04:15:28;;;;;;;12.93;11.63;;;22.50;43.00;;;;;;5083568;28;20029;-41
2024/02/27 04:17:55;;;;;;;12.60;11.30;;;22.50;43.00;;;;;;5075881;28;20463;-41
2024/02/27 04:20:21;;;;;;;12.35;10.80;;;22.50;43.00;;;;;;5083553;28;20024;-42
2024/02/27 04:22:47;;;;;;;12.68;11.25;;;22.50;42.90;;;;;;5081489;28;20036;-39
2024/02/27 04:25:14;;;;;;;12.73;11.43;;;22.50;42.90;;;;;;5077136;28;20050;-41
2024/02/27 04:27:40;;;;;;;12.10;10.90;;;22.50;42.90;;;;;;5083584;28;20029;-41
2024/02/27 04:30:07;;;;;;;12.30;11.10;;;22.40;42.90;;;;;;5081786;28;20063;-41
2024/02/27 04:32:34;;;;;;;12.38;11.18;;;22.50;43.10;;;;;;5065692;28;20560;-41
2024/02/27 04:35:00;;;;;;;12.30;11.10;;;22.50;43.10;;;;;;5082706;28;20032;-41
2024/02/27 04:37:27;;;;;;;11.98;10.77;;;22.50;43.10;;;;;;5083010;28;20028;-41
2024/02/27 04:39:53;;;;;;;12.48;11.18;;;22.50;43.00;;;;;;5082670;28;20040;-40
2024/02/27 04:42:20;;;;;;;13.30;11.93;;;22.50;43.00;;;;;;5076087;28;20111;-39
2024/02/27 04:44:46;;;;;;;11.52;10.32;;;22.40;42.90;;;;;;5082559;28;20060;-40
2024/02/27 04:47:12;;;;;;;12.63;11.32;;;22.40;43.00;;;;;;5074834;28;20064;-41
2024/02/27 04:49:38;;;;;;;11.45;10.25;;;22.50;43.10;;;;;;5083224;28;20020;-41
2024/02/27 04:52:04;;;;;;;12.48;11.27;;;22.50;43.10;;;;;;5082793;28;20025;-41
2024/02/27 04:54:31;;;;;;;12.40;11.10;;;22.50;43.20;;;;;;5079938;28;20048;-41
2024/02/27 04:56:57;;;;;;;12.50;11.30;;;22.50;43.10;;;;;;5082601;28;20157;-40
2024/02/27 04:59:23;;;;;;;11.70;10.50;;;22.50;43.10;;;;;;5082838;28;20024;-40
2024/02/27 05:01:49;;;;;;;12.02;10.75;;;22.40;43.00;;;;;;5081975;28;20037;-41
2024/02/27 05:04:16;;;;;;;12.63;11.23;;;22.40;43.00;;;;;;5083062;28;20082;-41
2024/02/27 05:06:42;;;;;;;11.75;10.55;;;22.50;43.20;;;;;;5082198;28;20059;-41
2024/02/27 05:09:09;;;;;;;12.13;10.83;;;22.50;43.20;;;;;;5080010;28;20049;-40
2024/02/27 05:11:35;;;;;;;12.20;11.00;;;22.50;43.20;;;;;;5077739;28;20280;-40
2024/02/27 05:14:02;;;;;;;12.05;10.85;;;22.50;43.20;;;;;;5079488;28;20819;-49
2024/02/27 05:16:28;;;;;;;12.48;11.23;;;22.50;43.10;;;;;;5051849;28;20394;-42
2024/02/27 05:18:54;;;;;;;11.57;10.48;;;22.50;43.10;;;;;;5079985;28;20021;-40
2024/02/27 05:21:20;;;;;;;11.55;10.43;;;22.40;43.10;;;;;;5074385;28;20036;-41
2024/02/27 05:23:46;;;;;;;11.50;10.40;;;22.40;43.20;;;;;;5082521;28;20017;-40
2024/02/27 05:26:13;;;;;;;11.32;10.23;;;22.50;43.30;;;;;;5081925;28;20088;-39
2024/02/27 05:28:39;;;;;;;11.90;10.70;;;22.50;43.30;;;;;;5064102;28;20033;-41
2024/02/27 05:31:24;;;;;;;12.25;11.05;;;22.50;43.20;;;;;;5081352;28;20047;-39
2024/02/27 05:33:51;;;;;;;11.75;10.55;;;22.50;43.20;;;;;;5076833;28;20025;-41
2024/02/27 05:36:17;;;;;;;12.10;10.80;;;22.40;43.20;;;;;;5078830;28;20107;-40
2024/02/27 05:38:43;;;;;;;11.55;10.45;;;22.40;43.20;;;;;;5081830;28;20092;-41
2024/02/27 05:41:10;;;;;;;12.00;10.73;;;22.40;43.30;;;;;;5082133;28;20040;-40
2024/02/27 05:43:36;;;;;;;10.93;9.82;;;22.50;43.40;;;;;;5082109;28;20020;-40
2024/02/27 05:46:05;;;;;;;10.93;9.82;;;22.50;43.30;;;;;;5072662;28;20048;-41
2024/02/27 05:48:34;;;;;;;11.38;10.05;;;22.50;43.30;;;;;;5082140;28;20029;-41
2024/02/27 05:51:00;;;;;;;11.43;10.32;;;22.40;43.20;;;;;;5078343;28;20090;-40
2024/02/27 05:53:29;;;;;;;11.02;9.98;;;22.40;43.20;;;;;;5080817;28;20020;-41
2024/02/27 05:55:56;;;;;;;11.15;10.05;;;22.40;43.20;;;;;;5080704;28;20040;-41
2024/02/27 05:58:23;;;;;;;10.80;9.70;;;22.40;43.30;;;;;;5081461;28;20060;-38
2024/02/27 06:00:51;;;;;;;10.52;9.30;;;22.40;43.30;;;;;;5081156;28;20090;-41
2024/02/27 06:03:20;;;;;;;;;;;22.50;43.30;;;;;;5079822;28;20111;-41
2024/02/27 06:05:46;;;;;;;10.45;9.43;;;22.50;43.30;;;;;;5078658;28;19936;-41
2024/02/27 06:08:15;;;;;;;10.95;9.85;;;22.40;43.20;;;;;;5061338;28;20025;-41
2024/02/27 06:10:42;;;;;;;10.65;9.43;;;22.40;43.20;;;;;;5061440;28;20043;-41
2024/02/27 06:13:08;;;;;;;10.57;9.48;;;22.40;43.30;;;;;;5061514;28;20031;-40
2024/02/27 06:15:34;;;;;;;10.43;9.32;;;22.40;43.40;;;;;;5061861;28;20393;-40
2024/02/27 06:18:01;;;;;;;10.13;9.13;;;22.40;43.40;;;;;;5054055;28;20033;-40
2024/02/27 06:23:12;;;;;;;9.50;8.60;;;22.40;43.30;;;;;;5060842;28;20059;-39
2024/02/27 06:25:38;;;;;;;10.55;9.45;;;22.40;43.30;;;;;;5061496;28;20033;-40
2024/02/27 06:28:05;;;;;;;10.18;9.23;;;22.40;43.30;;;;;;5061057;28;20433;-38
2024/02/27 06:30:31;;;;;;;9.82;8.88;;;22.40;43.40;;;;;;5061168;28;20025;-41
2024/02/27 06:32:57;;;;;;;9.98;8.98;;;22.40;43.40;;;;;;5060996;28;20092;-38
2024/02/27 06:35:24;;;;;;;10.02;9.02;;;22.40;43.40;;;;;;5061376;28;20094;-41
2024/02/27 06:37:50;;;;;;;9.48;8.57;;;22.40;43.40;;;;;;5059985;28;20137;-41
2024/02/27 06:40:16;;;;;;;10.07;9.02;;;22.40;43.30;;;;;;5046390;28;20021;-41
2024/02/27 06:42:43;;;;;;;9.77;8.83;;;22.40;43.30;;;;;;5052825;28;20045;-41
2024/02/27 06:45:16;;;;;;;10.15;9.15;;;22.30;43.30;;;;;;5046266;28;20448;-40
2024/02/27 06:47:42;;;;;;;10.27;9.23;;;22.30;43.30;;;;;;5028801;28;20033;-39
2024/02/27 06:50:12;;;;;;;9.68;8.70;;;22.40;43.50;;;;;;5051740;28;20036;-41
2024/02/27 06:52:39;;;;;;;9.05;8.20;;;22.40;43.40;;;;;;5043409;28;20041;-40
2024/02/27 06:55:05;;;;;;;9.80;8.77;;;22.40;43.40;;;;;;5050879;28;20037;-41
2024/02/27 06:57:35;;;;;;;10.50;9.23;;;22.40;43.40;;;;;;5046325;28;20026;-41
2024/02/27 07:00:01;;;;;;;9.27;8.18;;;22.40;43.40;;;;;;5045238;28;20101;-39
2024/02/27 07:02:27;;;;;;;10.30;9.20;;;22.30;43.30;;;;;;5043973;28;20578;-39
2024/02/27 07:04:54;;;;;;;9.00;8.10;;;22.30;43.40;;;;;;5047203;28;20089;-40
2024/02/27 07:07:20;;;;;;;9.15;8.25;;;22.40;43.50;;;;;;5061421;28;20052;-42
2024/02/27 07:09:46;;;;;;;8.82;7.93;;;22.40;43.50;;;;;;5064179;28;20043;-40
2024/02/27 07:12:12;;;;;;;8.60;7.70;;;22.40;43.50;;;;;;5072593;28;20040;-38
2024/02/27 07:14:41;;;;;;;8.40;7.60;;;22.40;43.50;;;;;;5071778;28;20031;-43
2024/02/27 07:17:08;;;;;;;9.40;8.18;;;22.30;43.40;;;;;;5072736;28;20040;-41
2024/02/27 07:19:35;;;;;;;9.52;8.63;;;22.30;43.50;;;;;;5069519;28;20063;-40
2024/02/27 07:22:02;;;;;;;8.85;7.93;;;22.30;43.50;;;;;;5076114;28;20148;-41
2024/02/27 07:24:28;;;;;;;9.00;8.10;;;22.40;43.60;;;;;;5075540;28;20027;-39
2024/02/27 07:26:54;;;;;;;8.60;7.63;;;22.40;43.60;;;;;;5069866;28;20059;-40
2024/02/27 07:29:20;;;;;;;9.00;8.13;;;22.40;43.50;;;;;;5073667;28;20028;-40
2024/02/27 07:31:47;;;;;;;6.32;5.70;;;22.40;43.50;;;;;;5074093;28;20033;-40
2024/02/27 07:34:16;;;;;;;8.98;8.07;;;22.30;43.50;;;;;;5075870;28;20078;-40
2024/02/27 07:36:45;;;;;;;9.10;8.20;;;22.30;43.50;;;;;;5074588;28;20899;-41
2024/02/27 07:39:12;;;;;;;8.95;8.05;;;22.30;43.60;;;;;;5073249;28;20032;-38
2024/02/27 07:41:41;;;;;;;8.98;8.07;;;22.40;43.60;;;;;;5078034;28;20040;-39
2024/02/27 07:44:07;;;;;;;9.27;8.38;;;22.40;43.60;;;;;;5074935;28;20036;-41
2024/02/27 07:46:36;;;;;;;8.25;7.32;;;22.40;43.60;;;;;;5058903;28;20085;-39
2024/02/27 07:49:02;;;;;;;8.60;7.70;;;22.40;43.50;;;;;;5072645;28;20405;-41
2024/02/27 07:51:30;;;;;;;8.93;8.02;;;22.30;43.50;;;;;;5077772;28;20036;-39
2024/02/27 07:53:56;;;;;;;;;;;22.30;43.50;;;;;;5070458;28;20021;-41
2024/02/27 07:56:22;;;;;;;8.60;7.80;;;22.30;43.60;;;;;;5074200;28;19917;-40
2024/02/27 07:58:48;;;;;;;8.75;7.85;;;22.40;43.60;;;;;;5067676;28;20029;-39
2024/02/27 08:01:15;;;;;;;8.32;7.53;;;22.40;43.60;;;;;;5073994;28;20037;-40
2024/02/27 08:03:41;;;;;;;9.40;7.75;;;22.40;43.60;;;;;;5072803;28;20116;-40
2024/02/27 08:06:07;;;;;;;8.77;7.87;;;22.40;43.60;;;;;;5074386;28;20166;-40
2024/02/27 08:08:33;;;;;;;8.88;7.97;;;22.30;43.60;;;;;;5071540;28;20084;-41
2024/02/27 08:11:02;;;;;;;8.38;7.57;;;22.30;43.50;;;;;;5076004;28;20037;-41
2024/02/27 08:13:28;;;;;;;9.45;8.55;;;22.30;43.60;;;;;;5076167;28;20103;-40
2024/02/27 08:15:54;;;;;;;9.32;8.38;;;22.30;43.60;;;;;;5074391;28;20037;-41
2024/02/27 08:18:20;;;;;;;8.68;7.82;;;22.40;43.60;;;;;;5073632;28;20039;-41
2024/02/27 08:20:47;;;;;;;9.18;8.27;;;22.40;43.70;;;;;;5051243;28;20037;-41
2024/02/27 08:23:14;;;;;;;8.82;7.93;;;22.40;43.70;;;;;;5069874;28;20025;-41
2024/02/27 08:25:40;;;;;;;9.40;7.97;;;22.30;43.60;;;;;;5070551;28;20045;-41
2024/02/27 08:28:06;;;;;;;8.90;8.00;;;22.30;43.60;;;;;;5070650;28;20029;-39
2024/02/27 08:30:33;;;;;;;8.43;7.63;;;22.30;43.60;;;;;;5068038;28;20079;-42
2024/02/27 08:32:59;;;;;;;6.57;5.95;;;22.30;43.70;;;;;;5068421;28;20273;-41
2024/02/27 08:35:25;;;;;;;9.45;8.05;;;22.40;43.70;;;;;;5070717;28;20025;-41
2024/02/27 08:37:52;;;;;;;8.80;7.95;;;22.40;43.70;;;;;;5068816;28;20029;-41
2024/02/27 08:40:18;;;;;;;8.75;7.85;;;22.30;43.60;;;;;;5049870;28;20082;-39
2024/02/27 08:42:44;;;;;;;8.17;7.37;;;22.30;43.60;;;;;;5069779;28;20032;-40
2024/02/27 08:45:11;;;;;;;8.55;7.72;;;22.30;43.70;;;;;;5072290;28;20575;-40
2024/02/27 08:47:37;;;;;;;8.27;7.47;;;22.30;43.70;;;;;;5076056;28;20032;-41
2024/02/27 08:50:06;;;;;;;8.95;8.05;;;22.40;43.80;;;;;;5082868;28;20028;-41
2024/02/27 08:52:33;;;;;;;8.68;7.85;;;22.40;43.80;;;;;;5083174;28;20020;-39
2024/02/27 08:54:59;;;;;;;8.25;7.45;;;22.40;43.70;;;;;;5082880;28;20028;-40
2024/02/27 08:57:25;;;;;;;8.70;7.80;;;22.30;43.70;;;;;;5083218;28;20029;-36
2024/02/27 08:59:51;;;;;;;8.52;7.72;;;22.30;43.70;;;;;;5082117;28;20031;-39
2024/02/27 09:02:17;;;;;;;8.20;7.40;;;22.30;43.80;;;;;;5082579;28;20590;-38
2024/02/27 09:04:43;;;;;;;8.93;8.02;;;22.30;43.80;;;;;;5078568;28;20088;-40
2024/02/27 09:07:11;;;;;;;8.75;7.90;;;22.40;43.80;;;;;;5069998;28;20056;-38
2024/02/27 09:09:39;;;;;;;8.52;7.63;;;22.40;43.80;;;;;;5058446;28;20111;-38
2024/02/27 09:12:06;;;;;;;8.52;7.50;;;22.40;43.80;;;;;;5062207;28;20033;-40
2024/02/27 09:14:32;;;;;;;8.00;7.20;;;22.30;43.70;;;;;;5062171;28;20029;-40
2024/02/27 09:16:58;;;;;;;7.87;7.13;;;22.30;43.80;;;;;;5054981;28;20036;-42
2024/02/27 09:19:27;;;;;;;8.38;7.50;;;22.30;43.80;;;;;;5057674;28;20047;-41
2024/02/27 09:21:53;;;;;;;7.72;6.93;;;22.40;43.90;;;;;;5061615;28;20068;-41
2024/02/27 09:24:20;;;;;;;7.35;6.65;;;22.40;44.50;;;;;;5056705;28;20022;-42
2024/02/27 09:26:46;;;;;;;8.77;7.43;;;22.40;43.90;;;;;;5058990;28;20048;-41
2024/02/27 09:29:12;;;;;;;8.52;7.63;;;22.40;43.90;;;;;;5062200;28;20186;-42
2024/02/27 09:31:38;;;;;;;8.23;7.43;;;22.40;43.90;;;;;;5054920;28;20040;-42
2024/02/27 09:34:06;;;;;;;8.00;7.20;;;22.40;43.90;;;;;;5060928;28;20023;-41
2024/02/27 09:36:33;;;;;;;7.95;7.15;;;22.40;44.00;;;;;;5058416;28;20529;-41
2024/02/27 09:38:59;;;;;;;5.47;4.93;;;22.40;44.20;;;;;;5061453;28;20692;-41
2024/02/27 09:41:30;;;;;;;8.10;7.30;;;22.40;44.20;;;;;;5061906;28;20051;-41
2024/02/27 09:43:56;;;;;;;7.50;6.80;;;22.40;44.20;;;;;;5043905;28;20024;-42
2024/02/27 09:46:25;;;;;;;7.32;6.60;;;22.40;44.10;;;;;;5062485;28;20290;-42
2024/02/27 09:48:55;;;;;;;7.63;6.72;;;22.40;44.10;;;;;;5043538;28;20017;-42
2024/02/27 09:51:22;;;;;;;7.28;6.57;;;22.40;44.10;;;;;;5054819;28;20035;-40
2024/02/27 09:53:49;;;;;;;7.00;6.32;;;22.40;44.20;;;;;;5061400;28;20041;-37
2024/02/27 09:56:15;;;;;;;7.57;6.43;;;22.40;44.30;;;;;;5043356;28;20625;-41
2024/02/27 09:58:45;;;;;;;6.97;6.28;;;22.50;44.40;;;;;;5040912;28;20029;-40
2024/02/27 10:01:14;;;;;;;7.20;6.00;;;22.50;44.40;;;;;;5060912;28;20090;-41
2024/02/27 10:03:45;;;;;;;6.72;6.13;;;22.50;44.40;;;;;;5061868;28;20073;-41
2024/02/27 10:06:18;;;;;;;7.05;6.40;;;22.40;44.40;;;;;;5039349;28;20041;-41
2024/02/27 10:08:49;;;;;;;6.72;6.00;;;22.40;44.30;;;;;;5060585;28;20032;-41
2024/02/27 10:11:15;;;;;;;6.75;6.10;;;22.40;44.40;;;;;;5053755;28;20037;-41
2024/02/27 10:13:42;;;;;;;6.50;5.85;;;22.50;44.60;;;;;;5061645;28;20025;-42
2024/02/27 10:16:08;;;;;;;7.45;6.35;;;22.50;44.60;;;;;;5060909;28;20037;-42
2024/02/27 10:18:34;;;;;;;6.90;6.20;;;22.50;44.60;;;;;;5061477;28;20029;-43
2024/02/27 10:21:00;;;;;;;6.85;6.05;;;22.50;44.60;;;;;;5057767;28;20489;-40
2024/02/27 10:23:26;;;;;;;6.68;6.07;;;22.50;44.60;;;;;;5061490;28;20036;-42
2024/02/27 10:25:52;;;;;;;6.13;5.50;;;22.50;44.50;;;;;;5060940;28;20043;-44
2024/02/27 10:28:19;;;;;;;7.40;6.10;;;22.40;44.50;;;;;;5043652;28;20058;-41
2024/02/27 10:30:45;;;;;;;6.40;5.80;;;22.50;44.80;;;;;;5061481;28;20021;-41
2024/02/27 10:33:13;;;;;;;7.07;5.88;;;22.50;44.80;;;;;;5043205;28;20028;-40
2024/02/27 10:35:42;;;;;;;6.53;5.90;;;22.50;44.80;;;;;;5061197;28;20028;-41
2024/02/27 10:38:15;;;;;;;7.30;6.20;;;22.50;44.70;;;;;;5060906;28;20745;-41
2024/02/27 10:40:42;;;;;;;6.70;6.03;;;22.50;44.70;;;;;;5054299;28;20034;-37
2024/02/27 10:43:08;;;;;;;6.73;5.80;;;22.50;44.70;;;;;;5060633;28;20053;-39
2024/02/27 10:45:34;;;;;;;6.75;5.75;;;22.50;44.70;;;;;;5045092;28;20082;-40
2024/02/27 10:48:01;;;;;;;5.63;5.00;;;22.50;44.90;;;;;;5056927;28;20029;-43
2024/02/27 10:50:27;;;;;;;6.07;5.47;;;22.50;44.90;;;;;;5065705;28;20036;-41
2024/02/27 10:52:54;;;;;;;6.50;5.90;;;22.50;45.00;;;;;;5047532;28;20033;-41
2024/02/27 10:55:22;;;;;;;5.93;5.25;;;22.50;44.90;;;;;;5058487;28;20361;-42
2024/02/27 10:57:48;;;;;;;6.50;5.90;;;22.50;44.90;;;;;;5046923;28;20035;-41
2024/02/27 11:00:15;;;;;;;6.35;5.75;;;22.50;44.90;;;;;;5030372;28;20029;-42
2024/02/27 11:02:43;;;;;;;7.03;5.90;;;22.50;44.90;;;;;;5065203;28;20226;-42
2024/02/27 11:05:09;;;;;;;6.22;5.63;;;22.50;44.90;;;;;;5039042;28;20116;-42
2024/02/27 11:07:35;;;;;;;6.47;5.82;;;22.50;45.00;;;;;;5062744;28;20045;-41
2024/02/27 11:10:01;;;;;;;6.03;5.43;;;22.60;45.20;;;;;;5083899;28;20039;-42
2024/02/27 11:12:27;;;;;;;6.80;5.80;;;22.60;45.10;;;;;;5085044;28;20493;-41
2024/02/27 11:15:00;;;;;;;6.50;5.90;;;22.60;45.10;;;;;;5064897;28;20044;-42
2024/02/27 11:17:28;;;;;;;6.60;5.97;;;22.50;45.10;;;;;;5074367;28;20033;-39
2024/02/27 11:19:54;;;;;;;6.90;6.20;;;22.50;45.00;;;;;;5076118;28;20033;-42
2024/02/27 11:22:22;;;;;;;6.65;5.95;;;22.50;45.00;;;;;;5066733;28;20036;-42
2024/02/27 11:24:48;;;;;;;6.85;6.25;;;22.50;45.10;;;;;;5084545;28;20024;-41
2024/02/27 11:27:19;;;;;;;6.15;5.55;;;22.60;45.30;;;;;;5083100;28;20035;-41
2024/02/27 11:29:45;;;;;;;6.93;6.22;;;22.60;45.30;;;;;;5082518;28;20028;-37
2024/02/27 11:32:12;;;;;;;6.53;5.93;;;22.60;45.30;;;;;;5066011;28;20027;-41
2024/02/27 11:34:39;;;;;;;6.32;5.72;;;22.60;45.30;;;;;;5060853;28;20376;-41
2024/02/27 11:37:16;;;;;;;6.40;5.78;;;22.60;45.30;;;;;;5081395;28;20040;-41
2024/02/27 11:39:43;;;;;;;7.45;6.30;;;22.60;45.20;;;;;;5077602;28;20029;-41
2024/02/27 11:42:26;;;;;;;6.88;5.97;;;22.50;45.20;;;;;;5083512;28;20053;-41
2024/02/27 11:45:28;;;;;;;6.07;5.57;;;22.60;45.50;;;;;;5066630;28;20111;-42
2024/02/27 11:47:55;;;;;;;6.15;5.55;;;22.60;45.40;;;;;;5074059;28;20084;-41
2024/02/27 11:50:36;;;;;;;6.30;5.70;;;22.60;45.50;;;;;;5076960;28;20107;-44
2024/02/27 11:53:20;;;;;;;6.60;6.00;;;22.60;45.40;;;;;;5083661;28;20074;-42
2024/02/27 11:55:50;;;;;;;6.75;6.07;;;22.60;45.40;;;;;;5084517;28;20445;-41
2024/02/27 11:58:16;;;;;;;6.88;6.28;;;22.60;45.40;;;;;;5082822;28;20029;-41
2024/02/27 12:00:46;;;;;;;6.77;6.00;;;22.60;45.40;;;;;;5083227;28;20051;-41
2024/02/27 12:03:12;;;;;;;6.60;5.90;;;22.60;45.50;;;;;;5076637;28;20371;-41
2024/02/27 12:05:38;;;;;;;5.70;5.20;;;22.60;45.60;;;;;;5080077;28;20059;-41
2024/02/27 12:08:04;;;;;;;6.75;5.97;;;22.70;45.60;;;;;;5083638;28;20036;-42
2024/02/27 12:10:31;;;;;;;7.50;6.53;;;22.60;45.60;;;;;;5083309;28;20012;-41
2024/02/27 12:12:57;;;;;;;6.40;5.80;;;22.60;45.60;;;;;;5083319;28;20036;-39
2024/02/27 12:15:23;;;;;;;6.15;5.60;;;22.60;45.50;;;;;;5083526;28;20039;-41
2024/02/27 12:17:49;;;;;;;6.63;6.03;;;22.60;45.50;;;;;;5076290;28;20035;-41
2024/02/27 12:20:15;;;;;;;6.28;5.68;;;22.60;45.50;;;;;;5082686;28;20031;-45
2024/02/27 12:22:45;;;;;;;7.00;6.40;;;22.60;45.60;;;;;;5083389;28;20039;-41
2024/02/27 12:25:12;;;;;;;6.38;5.78;;;22.60;45.70;;;;;;5083475;28;20145;-40
2024/02/27 12:27:38;;;;;;;6.93;5.68;;;22.70;45.70;;;;;;5082869;28;20055;-42
2024/02/27 12:30:10;;;;;;;6.53;5.80;;;22.70;45.70;;;;;;5082091;28;20036;-41
2024/02/27 12:32:42;;;;;;;7.00;6.30;;;22.70;45.70;;;;;;5065987;28;20037;-42
2024/02/27 12:35:13;;;;;;;6.80;5.93;;;22.60;45.60;;;;;;5065416;28;20055;-40
2024/02/27 12:37:48;;;;;;;6.88;6.18;;;22.60;45.60;;;;;;5083181;28;20059;-43
2024/02/27 12:40:20;;;;;;;6.38;5.75;;;22.60;45.60;;;;;;5076054;28;20037;-40
2024/02/27 12:42:50;;;;;;;6.53;5.78;;;22.60;45.70;;;;;;5083213;28;20028;-41